ELY5111 LLBG-LIRN
Flight info
| Callsign | ELY5111 |
|---|---|
| Flight time | 3h 4m |
| Altitude | 32000 |
| Route | SUVAS L53 ANIDE UL53 KRK UL995 TIGRA DCT KAPPO DCT LUXIL DCT TOPNO L995 EKTOL |
| Aircraft | B738/M-SDE2E3FGHIRWXY/LB1 |
Departure
| Time | 2026-05-05 07:11 |
|---|---|
| Airport | Ben Gurion International Airport (LLBG) |
Arrival
| Time | 2026-05-05 10:16 |
|---|---|
| Airport | Naples International Airport (LIRN) |
| Time | Latitude | Longitude | Altitude | Speed | Heading |
|---|---|---|---|---|---|
| 2026-05-05 06:44 | 32.00298 | 34.87506 | 119 ft | 0 kts | 342° |
| 2026-05-05 07:00 | 32.00296 | 34.87506 | 119 ft | 2 kts | 342° |
| 2026-05-05 07:00 | 32.00270 | 34.87516 | 117 ft | 3 kts | 341° |
| 2026-05-05 07:00 | 32.00257 | 34.87522 | 114 ft | 3 kts | 335° |
| 2026-05-05 07:00 | 32.00241 | 34.87532 | 117 ft | 3 kts | 316° |
| 2026-05-05 07:01 | 32.00229 | 34.87548 | 114 ft | 3 kts | 305° |
| 2026-05-05 07:01 | 32.00218 | 34.87569 | 115 ft | 3 kts | 297° |
| 2026-05-05 07:01 | 32.00207 | 34.87587 | 115 ft | 3 kts | 325° |
| 2026-05-05 07:01 | 32.00191 | 34.87600 | 116 ft | 3 kts | 332° |
| 2026-05-05 07:02 | 32.00172 | 34.87609 | 116 ft | 3 kts | 354° |
| 2026-05-05 07:02 | 32.00154 | 34.87606 | 116 ft | 3 kts | 29° |
| 2026-05-05 07:02 | 32.00137 | 34.87595 | 116 ft | 3 kts | 31° |
| 2026-05-05 07:02 | 32.00119 | 34.87582 | 116 ft | 3 kts | 32° |
| 2026-05-05 07:03 | 32.00105 | 34.87572 | 117 ft | 0 kts | 31° |
| 2026-05-05 07:05 | 32.00107 | 34.87573 | 117 ft | 1 kts | 32° |
| 2026-05-05 07:06 | 32.00127 | 34.87588 | 119 ft | 6 kts | 32° |
| 2026-05-05 07:06 | 32.00179 | 34.87627 | 119 ft | 12 kts | 32° |
| 2026-05-05 07:06 | 32.00264 | 34.87689 | 118 ft | 17 kts | 31° |
| 2026-05-05 07:06 | 32.00380 | 34.87771 | 118 ft | 22 kts | 31° |
| 2026-05-05 07:07 | 32.00522 | 34.87871 | 117 ft | 26 kts | 31° |
| 2026-05-05 07:07 | 32.00689 | 34.87989 | 118 ft | 30 kts | 32° |
| 2026-05-05 07:07 | 32.00875 | 34.88124 | 119 ft | 33 kts | 32° |
| 2026-05-05 07:07 | 32.00994 | 34.88213 | 115 ft | 17 kts | 32° |
| 2026-05-05 07:08 | 32.01090 | 34.88283 | 119 ft | 16 kts | 31° |
| 2026-05-05 07:08 | 32.01191 | 34.88353 | 120 ft | 18 kts | 30° |
| 2026-05-05 07:08 | 32.01293 | 34.88442 | 119 ft | 19 kts | 41° |
| 2026-05-05 07:08 | 32.01392 | 34.88566 | 116 ft | 22 kts | 55° |
| 2026-05-05 07:09 | 32.01469 | 34.88732 | 118 ft | 24 kts | 68° |
| 2026-05-05 07:09 | 32.01507 | 34.88926 | 117 ft | 24 kts | 81° |
| 2026-05-05 07:09 | 32.01542 | 34.89120 | 119 ft | 24 kts | 66° |
| 2026-05-05 07:09 | 32.01622 | 34.89168 | 117 ft | 12 kts | 351° |
| 2026-05-05 07:10 | 32.01705 | 34.89141 | 114 ft | 12 kts | 348° |
| 2026-05-05 07:10 | 32.01763 | 34.89116 | 117 ft | 4 kts | 298° |
| 2026-05-05 07:10 | 32.01753 | 34.89085 | 117 ft | 4 kts | 224° |
| 2026-05-05 07:10 | 32.01741 | 34.89052 | 115 ft | 5 kts | 260° |
| 2026-05-05 07:11 | 32.01710 | 34.88860 | 120 ft | 56 kts | 259° |
| 2026-05-05 07:11 | 32.01602 | 34.88152 | 116 ft | 118 kts | 259° |
| 2026-05-05 07:11 | 32.01424 | 34.87010 | 199 ft | 161 kts | 259° |
| 2026-05-05 07:11 | 32.01236 | 34.85721 | 877 ft | 162 kts | 262° |
| 2026-05-05 07:12 | 32.00998 | 34.84393 | 1552 ft | 168 kts | 249° |
| 2026-05-05 07:12 | 32.00718 | 34.83062 | 2297 ft | 172 kts | 256° |
| 2026-05-05 07:12 | 32.00426 | 34.81609 | 2689 ft | 187 kts | 255° |
| 2026-05-05 07:12 | 32.00093 | 34.80103 | 3066 ft | 202 kts | 256° |
| 2026-05-05 07:13 | 31.99729 | 34.78414 | 3395 ft | 217 kts | 255° |
| 2026-05-05 07:13 | 31.99338 | 34.76607 | 3744 ft | 237 kts | 257° |
| 2026-05-05 07:13 | 31.99257 | 34.74636 | 4329 ft | 246 kts | 279° |
| 2026-05-05 07:13 | 31.99749 | 34.72696 | 5159 ft | 250 kts | 288° |
| 2026-05-05 07:14 | 32.00374 | 34.70763 | 5908 ft | 252 kts | 289° |
| 2026-05-05 07:14 | 32.01006 | 34.68822 | 6659 ft | 257 kts | 288° |
| 2026-05-05 07:14 | 32.01636 | 34.66846 | 7385 ft | 258 kts | 288° |
| 2026-05-05 07:14 | 32.02263 | 34.64854 | 7807 ft | 259 kts | 288° |
| 2026-05-05 07:15 | 32.02818 | 34.62859 | 8163 ft | 263 kts | 284° |
| 2026-05-05 07:15 | 32.03294 | 34.60773 | 8932 ft | 263 kts | 283° |
| 2026-05-05 07:15 | 32.03754 | 34.58684 | 9697 ft | 265 kts | 284° |
| 2026-05-05 07:15 | 32.04219 | 34.56564 | 10321 ft | 271 kts | 284° |
| 2026-05-05 07:16 | 32.04711 | 34.54325 | 10501 ft | 293 kts | 284° |
| 2026-05-05 07:16 | 32.05244 | 34.51916 | 10670 ft | 314 kts | 284° |
| 2026-05-05 07:16 | 32.05814 | 34.49347 | 10831 ft | 334 kts | 284° |
| 2026-05-05 07:16 | 32.06412 | 34.46656 | 11244 ft | 343 kts | 284° |
| 2026-05-05 07:17 | 32.07022 | 34.43922 | 11914 ft | 345 kts | 284° |
| 2026-05-05 07:17 | 32.07631 | 34.41191 | 12646 ft | 345 kts | 284° |
| 2026-05-05 07:17 | 32.08243 | 34.38450 | 13337 ft | 346 kts | 284° |
| 2026-05-05 07:17 | 32.08857 | 34.35694 | 13992 ft | 348 kts | 284° |
| 2026-05-05 07:18 | 32.09473 | 34.32925 | 14566 ft | 351 kts | 284° |
| 2026-05-05 07:18 | 32.10094 | 34.30131 | 15126 ft | 354 kts | 284° |
| 2026-05-05 07:18 | 32.10719 | 34.27314 | 15704 ft | 356 kts | 284° |
| 2026-05-05 07:18 | 32.11347 | 34.24485 | 16270 ft | 358 kts | 284° |
| 2026-05-05 07:19 | 32.11979 | 34.21631 | 16801 ft | 361 kts | 284° |
| 2026-05-05 07:19 | 32.12615 | 34.18755 | 17323 ft | 364 kts | 284° |
| 2026-05-05 07:19 | 32.13256 | 34.15856 | 17844 ft | 367 kts | 284° |
| 2026-05-05 07:19 | 32.13901 | 34.12933 | 18351 ft | 370 kts | 284° |
| 2026-05-05 07:20 | 32.14551 | 34.09986 | 18786 ft | 372 kts | 284° |
| 2026-05-05 07:20 | 32.15204 | 34.07022 | 19240 ft | 375 kts | 284° |
| 2026-05-05 07:20 | 32.15852 | 34.04076 | 19683 ft | 377 kts | 284° |
| 2026-05-05 07:20 | 32.16522 | 34.01032 | 20124 ft | 380 kts | 284° |
| 2026-05-05 07:21 | 32.17360 | 33.98071 | 20543 ft | 383 kts | 292° |
| 2026-05-05 07:21 | 32.18503 | 33.95269 | 20964 ft | 385 kts | 295° |
| 2026-05-05 07:21 | 32.19699 | 33.92424 | 21385 ft | 388 kts | 295° |
| 2026-05-05 07:21 | 32.20902 | 33.89558 | 21789 ft | 391 kts | 295° |
| 2026-05-05 07:22 | 32.22109 | 33.86674 | 22201 ft | 393 kts | 295° |
| 2026-05-05 07:22 | 32.23319 | 33.83766 | 22594 ft | 395 kts | 295° |
| 2026-05-05 07:22 | 32.24531 | 33.80843 | 22978 ft | 398 kts | 295° |
| 2026-05-05 07:22 | 32.25749 | 33.77897 | 23351 ft | 400 kts | 295° |
| 2026-05-05 07:23 | 32.26971 | 33.74933 | 23701 ft | 402 kts | 295° |
| 2026-05-05 07:23 | 32.28197 | 33.71956 | 24017 ft | 404 kts | 295° |
| 2026-05-05 07:23 | 32.29428 | 33.68962 | 24333 ft | 406 kts | 295° |
| 2026-05-05 07:23 | 32.30663 | 33.65958 | 24647 ft | 407 kts | 295° |
| 2026-05-05 07:24 | 32.31902 | 33.62939 | 24951 ft | 409 kts | 295° |
| 2026-05-05 07:24 | 32.33145 | 33.59908 | 25254 ft | 411 kts | 295° |
| 2026-05-05 07:24 | 32.34395 | 33.56861 | 25542 ft | 413 kts | 295° |
| 2026-05-05 07:24 | 32.35649 | 33.53797 | 25824 ft | 414 kts | 295° |
| 2026-05-05 07:25 | 32.36906 | 33.50724 | 26094 ft | 416 kts | 295° |
| 2026-05-05 07:25 | 32.38168 | 33.47637 | 26368 ft | 418 kts | 295° |
| 2026-05-05 07:25 | 32.39436 | 33.44535 | 26659 ft | 419 kts | 295° |
| 2026-05-05 07:25 | 32.40701 | 33.41434 | 27035 ft | 418 kts | 295° |
| 2026-05-05 07:26 | 32.41962 | 33.38343 | 27463 ft | 416 kts | 295° |
| 2026-05-05 07:26 | 32.43214 | 33.35269 | 27862 ft | 414 kts | 295° |
| 2026-05-05 07:26 | 32.44465 | 33.32196 | 28211 ft | 414 kts | 295° |
| 2026-05-05 07:26 | 32.45714 | 33.29126 | 28557 ft | 414 kts | 295° |
| 2026-05-05 07:27 | 32.46958 | 33.26062 | 28942 ft | 413 kts | 295° |
| 2026-05-05 07:27 | 32.48199 | 33.23006 | 29347 ft | 411 kts | 295° |
| 2026-05-05 07:27 | 32.49436 | 33.19956 | 29716 ft | 410 kts | 295° |
| 2026-05-05 07:27 | 32.50671 | 33.16908 | 30068 ft | 410 kts | 295° |
| 2026-05-05 07:28 | 32.51902 | 33.13869 | 30372 ft | 409 kts | 295° |
| 2026-05-05 07:28 | 32.53128 | 33.10838 | 30703 ft | 407 kts | 295° |
| 2026-05-05 07:28 | 32.54347 | 33.07821 | 31050 ft | 405 kts | 294° |
| 2026-05-05 07:28 | 32.55559 | 33.04821 | 31394 ft | 403 kts | 294° |
| 2026-05-05 07:29 | 32.56764 | 33.01835 | 31734 ft | 401 kts | 294° |
| 2026-05-05 07:29 | 32.57964 | 32.98860 | 32018 ft | 400 kts | 294° |
| 2026-05-05 07:29 | 32.59168 | 32.95869 | 32009 ft | 404 kts | 294° |
| 2026-05-05 07:30 | 32.61564 | 32.89912 | 32020 ft | 401 kts | 294° |
| 2026-05-05 07:30 | 32.65142 | 32.81000 | 32031 ft | 397 kts | 294° |
| 2026-05-05 07:31 | 32.67508 | 32.75093 | 32029 ft | 396 kts | 294° |
| 2026-05-05 07:31 | 32.69870 | 32.69186 | 32030 ft | 396 kts | 294° |
| 2026-05-05 07:32 | 32.72230 | 32.63275 | 32032 ft | 397 kts | 294° |
| 2026-05-05 07:32 | 32.74593 | 32.57345 | 32032 ft | 398 kts | 294° |
| 2026-05-05 07:33 | 32.76963 | 32.51388 | 32032 ft | 400 kts | 294° |
| 2026-05-05 07:33 | 32.79340 | 32.45404 | 32030 ft | 401 kts | 294° |
| 2026-05-05 07:34 | 32.81775 | 32.39419 | 32022 ft | 403 kts | 298° |
| 2026-05-05 07:34 | 32.84916 | 32.33881 | 32027 ft | 405 kts | 303° |
| 2026-05-05 07:35 | 32.88139 | 32.28387 | 32029 ft | 405 kts | 303° |
| 2026-05-05 07:35 | 32.91348 | 32.22876 | 32026 ft | 405 kts | 303° |
| 2026-05-05 07:36 | 32.94543 | 32.17356 | 32027 ft | 405 kts | 303° |
| 2026-05-05 07:36 | 32.97731 | 32.11832 | 32026 ft | 404 kts | 303° |
| 2026-05-05 07:37 | 33.00906 | 32.06321 | 32030 ft | 403 kts | 303° |
| 2026-05-05 07:37 | 33.04073 | 32.00814 | 32021 ft | 402 kts | 303° |
| 2026-05-05 07:38 | 33.07231 | 31.95316 | 32027 ft | 401 kts | 303° |
| 2026-05-05 07:38 | 33.10378 | 31.89829 | 32024 ft | 400 kts | 303° |
| 2026-05-05 07:39 | 33.13494 | 31.84388 | 32021 ft | 399 kts | 303° |
| 2026-05-05 07:39 | 33.16622 | 31.78918 | 32027 ft | 399 kts | 303° |
| 2026-05-05 07:40 | 33.19744 | 31.73451 | 32023 ft | 398 kts | 303° |
| 2026-05-05 07:40 | 33.22861 | 31.67984 | 32025 ft | 398 kts | 303° |
| 2026-05-05 07:41 | 33.25974 | 31.62515 | 32026 ft | 398 kts | 303° |
| 2026-05-05 07:41 | 33.29088 | 31.57037 | 32025 ft | 398 kts | 303° |
| 2026-05-05 07:42 | 33.32201 | 31.51553 | 32024 ft | 399 kts | 303° |
| 2026-05-05 07:42 | 33.35312 | 31.46064 | 32024 ft | 399 kts | 303° |
| 2026-05-05 07:43 | 33.38426 | 31.40562 | 32026 ft | 400 kts | 303° |
| 2026-05-05 07:43 | 33.41541 | 31.35049 | 32024 ft | 400 kts | 303° |
| 2026-05-05 07:44 | 33.44658 | 31.29526 | 32024 ft | 401 kts | 303° |
| 2026-05-05 07:44 | 33.47775 | 31.23992 | 32024 ft | 401 kts | 303° |
| 2026-05-05 07:45 | 33.50893 | 31.18449 | 32025 ft | 401 kts | 303° |
| 2026-05-05 07:45 | 33.54012 | 31.12897 | 32023 ft | 402 kts | 303° |
| 2026-05-05 07:46 | 33.57130 | 31.07337 | 32025 ft | 402 kts | 303° |
| 2026-05-05 07:46 | 33.60246 | 31.01773 | 32025 ft | 402 kts | 303° |
| 2026-05-05 07:47 | 33.62838 | 30.97138 | 32025 ft | 402 kts | 303° |
| 2026-05-05 07:47 | 33.65950 | 30.91565 | 32026 ft | 402 kts | 303° |
| 2026-05-05 07:48 | 33.69062 | 30.85982 | 32026 ft | 402 kts | 303° |
| 2026-05-05 07:48 | 33.72172 | 30.80397 | 32027 ft | 402 kts | 303° |
| 2026-05-05 07:49 | 33.75278 | 30.74809 | 32028 ft | 402 kts | 303° |
| 2026-05-05 07:49 | 33.78381 | 30.69217 | 32028 ft | 402 kts | 303° |
| 2026-05-05 07:50 | 33.81481 | 30.63624 | 32027 ft | 402 kts | 303° |
| 2026-05-05 07:50 | 33.84577 | 30.58029 | 32027 ft | 402 kts | 303° |
| 2026-05-05 07:51 | 33.87669 | 30.52431 | 32027 ft | 402 kts | 303° |
| 2026-05-05 07:51 | 33.90756 | 30.46834 | 32026 ft | 401 kts | 303° |
| 2026-05-05 07:52 | 33.93843 | 30.41230 | 32027 ft | 401 kts | 303° |
| 2026-05-05 07:52 | 33.96926 | 30.35622 | 32030 ft | 402 kts | 303° |
| 2026-05-05 07:53 | 34.00010 | 30.30006 | 32030 ft | 402 kts | 303° |
| 2026-05-05 07:53 | 34.03086 | 30.24393 | 32032 ft | 402 kts | 303° |
| 2026-05-05 07:54 | 34.06165 | 30.18769 | 32032 ft | 402 kts | 303° |
| 2026-05-05 07:54 | 34.09242 | 30.13137 | 32029 ft | 402 kts | 303° |
| 2026-05-05 07:55 | 34.12297 | 30.07537 | 32030 ft | 402 kts | 303° |
| 2026-05-05 07:55 | 34.15372 | 30.01893 | 32030 ft | 402 kts | 303° |
| 2026-05-05 07:56 | 34.18613 | 29.96384 | 32031 ft | 403 kts | 307° |
| 2026-05-05 07:56 | 34.22050 | 29.91040 | 32030 ft | 403 kts | 308° |
| 2026-05-05 07:57 | 34.25492 | 29.85699 | 32033 ft | 403 kts | 307° |
| 2026-05-05 07:57 | 34.28923 | 29.80328 | 32031 ft | 403 kts | 307° |
| 2026-05-05 07:58 | 34.32340 | 29.74949 | 32032 ft | 404 kts | 307° |
| 2026-05-05 07:58 | 34.35756 | 29.69556 | 32034 ft | 404 kts | 307° |
| 2026-05-05 07:59 | 34.39171 | 29.64155 | 32035 ft | 404 kts | 307° |
| 2026-05-05 07:59 | 34.42586 | 29.58747 | 32036 ft | 404 kts | 307° |
| 2026-05-05 08:00 | 34.46000 | 29.53332 | 32036 ft | 404 kts | 307° |
| 2026-05-05 08:00 | 34.49412 | 29.47913 | 32036 ft | 405 kts | 307° |
| 2026-05-05 08:01 | 34.52825 | 29.42483 | 32036 ft | 405 kts | 307° |
| 2026-05-05 08:01 | 34.56236 | 29.37048 | 32038 ft | 405 kts | 307° |
| 2026-05-05 08:02 | 34.59645 | 29.31609 | 32038 ft | 405 kts | 307° |
| 2026-05-05 08:02 | 34.63055 | 29.26159 | 32039 ft | 405 kts | 307° |
| 2026-05-05 08:03 | 34.66465 | 29.20701 | 32039 ft | 406 kts | 307° |
| 2026-05-05 08:03 | 34.69873 | 29.15238 | 32040 ft | 406 kts | 307° |
| 2026-05-05 08:04 | 34.73280 | 29.09768 | 32042 ft | 406 kts | 307° |
| 2026-05-05 08:04 | 34.76664 | 29.04326 | 32045 ft | 406 kts | 307° |
| 2026-05-05 08:05 | 34.80094 | 28.98801 | 32045 ft | 407 kts | 307° |
| 2026-05-05 08:05 | 34.83478 | 28.93344 | 32043 ft | 407 kts | 307° |
| 2026-05-05 08:06 | 34.86886 | 28.87837 | 32042 ft | 407 kts | 307° |
| 2026-05-05 08:06 | 34.90295 | 28.82321 | 32045 ft | 408 kts | 307° |
| 2026-05-05 08:07 | 34.93703 | 28.76798 | 32044 ft | 408 kts | 307° |
| 2026-05-05 08:07 | 34.97116 | 28.71258 | 32043 ft | 408 kts | 307° |
| 2026-05-05 08:08 | 35.00527 | 28.65714 | 32044 ft | 409 kts | 306° |
| 2026-05-05 08:08 | 35.03695 | 28.59957 | 32053 ft | 409 kts | 301° |
| 2026-05-05 08:09 | 35.06619 | 28.54002 | 32043 ft | 409 kts | 301° |
| 2026-05-05 08:09 | 35.09558 | 28.48044 | 32044 ft | 410 kts | 301° |
| 2026-05-05 08:10 | 35.12517 | 28.42089 | 32046 ft | 410 kts | 301° |
| 2026-05-05 08:10 | 35.15474 | 28.36125 | 32045 ft | 410 kts | 301° |
| 2026-05-05 08:11 | 35.18422 | 28.30150 | 32047 ft | 411 kts | 301° |
| 2026-05-05 08:11 | 35.21370 | 28.24158 | 32050 ft | 411 kts | 301° |
| 2026-05-05 08:12 | 35.24315 | 28.18166 | 32056 ft | 411 kts | 301° |
| 2026-05-05 08:12 | 35.27260 | 28.12162 | 32051 ft | 412 kts | 301° |
| 2026-05-05 08:13 | 35.30205 | 28.06150 | 32054 ft | 412 kts | 301° |
| 2026-05-05 08:13 | 35.33130 | 28.00169 | 32055 ft | 412 kts | 301° |
| 2026-05-05 08:14 | 35.36072 | 27.94142 | 32053 ft | 412 kts | 301° |
| 2026-05-05 08:14 | 35.39013 | 27.88105 | 32062 ft | 413 kts | 301° |
| 2026-05-05 08:15 | 35.41953 | 27.82061 | 32061 ft | 413 kts | 301° |
| 2026-05-05 08:15 | 35.44891 | 27.76010 | 32060 ft | 413 kts | 301° |
| 2026-05-05 08:16 | 35.47827 | 27.69953 | 32058 ft | 413 kts | 301° |
| 2026-05-05 08:16 | 35.50761 | 27.63888 | 32065 ft | 413 kts | 301° |
| 2026-05-05 08:17 | 35.53694 | 27.57817 | 32065 ft | 413 kts | 301° |
| 2026-05-05 08:17 | 35.56623 | 27.51741 | 32071 ft | 413 kts | 301° |
| 2026-05-05 08:18 | 35.59550 | 27.45660 | 32071 ft | 413 kts | 301° |
| 2026-05-05 08:18 | 35.62470 | 27.39582 | 32071 ft | 413 kts | 301° |
| 2026-05-05 08:19 | 35.65386 | 27.33501 | 32073 ft | 413 kts | 301° |
| 2026-05-05 08:19 | 35.68295 | 27.27425 | 32071 ft | 412 kts | 301° |
| 2026-05-05 08:20 | 35.71200 | 27.21344 | 32071 ft | 412 kts | 301° |
| 2026-05-05 08:20 | 35.74104 | 27.15257 | 32073 ft | 413 kts | 301° |
| 2026-05-05 08:21 | 35.77004 | 27.09166 | 32087 ft | 412 kts | 301° |
| 2026-05-05 08:21 | 35.79900 | 27.03074 | 32079 ft | 412 kts | 301° |
| 2026-05-05 08:22 | 35.82758 | 26.96967 | 32078 ft | 412 kts | 298° |
| 2026-05-05 08:22 | 35.85215 | 26.90640 | 32085 ft | 412 kts | 296° |
| 2026-05-05 08:23 | 35.87641 | 26.84329 | 32077 ft | 412 kts | 297° |
| 2026-05-05 08:23 | 35.90142 | 26.77980 | 32084 ft | 412 kts | 297° |
| 2026-05-05 08:24 | 35.93119 | 26.71981 | 32090 ft | 410 kts | 305° |
| 2026-05-05 08:24 | 35.96378 | 26.66191 | 32094 ft | 410 kts | 305° |
| 2026-05-05 08:25 | 35.99624 | 26.60394 | 32088 ft | 411 kts | 305° |
| 2026-05-05 08:25 | 36.02855 | 26.54574 | 32087 ft | 411 kts | 305° |
| 2026-05-05 08:26 | 36.06078 | 26.48743 | 32091 ft | 411 kts | 305° |
| 2026-05-05 08:26 | 36.09295 | 26.42909 | 32092 ft | 411 kts | 305° |
| 2026-05-05 08:27 | 36.12511 | 26.37067 | 32093 ft | 411 kts | 305° |
| 2026-05-05 08:27 | 36.15723 | 26.31224 | 32092 ft | 411 kts | 305° |
| 2026-05-05 08:28 | 36.18935 | 26.25370 | 32094 ft | 411 kts | 305° |
| 2026-05-05 08:28 | 36.22138 | 26.19523 | 32097 ft | 410 kts | 305° |
| 2026-05-05 08:29 | 36.25338 | 26.13670 | 32101 ft | 410 kts | 305° |
| 2026-05-05 08:30 | 36.30127 | 26.04893 | 32101 ft | 409 kts | 305° |
| 2026-05-05 08:30 | 36.33306 | 25.99052 | 32102 ft | 408 kts | 305° |
| 2026-05-05 08:31 | 36.36480 | 25.93215 | 32102 ft | 408 kts | 305° |
| 2026-05-05 08:31 | 36.39646 | 25.87386 | 32101 ft | 407 kts | 305° |
| 2026-05-05 08:32 | 36.42783 | 25.81605 | 32101 ft | 406 kts | 305° |
| 2026-05-05 08:32 | 36.45932 | 25.75792 | 32101 ft | 405 kts | 305° |
| 2026-05-05 08:33 | 36.49071 | 25.69984 | 32103 ft | 404 kts | 305° |
| 2026-05-05 08:33 | 36.52202 | 25.64183 | 32103 ft | 404 kts | 306° |
| 2026-05-05 08:34 | 36.55325 | 25.58386 | 32101 ft | 403 kts | 306° |
| 2026-05-05 08:34 | 36.58440 | 25.52594 | 32104 ft | 402 kts | 306° |
| 2026-05-05 08:35 | 36.61547 | 25.46806 | 32106 ft | 402 kts | 306° |
| 2026-05-05 08:35 | 36.64126 | 25.41997 | 32103 ft | 402 kts | 306° |
| 2026-05-05 08:36 | 36.67257 | 25.36246 | 32103 ft | 401 kts | 307° |
| 2026-05-05 08:36 | 36.70462 | 25.30563 | 32103 ft | 401 kts | 307° |
| 2026-05-05 08:37 | 36.73665 | 25.24886 | 32122 ft | 400 kts | 307° |
| 2026-05-05 08:37 | 36.76855 | 25.19201 | 32108 ft | 400 kts | 307° |
| 2026-05-05 08:38 | 36.80034 | 25.13512 | 32105 ft | 399 kts | 307° |
| 2026-05-05 08:38 | 36.83204 | 25.07828 | 32102 ft | 399 kts | 307° |
| 2026-05-05 08:39 | 36.86372 | 25.02138 | 32103 ft | 399 kts | 307° |
| 2026-05-05 08:39 | 36.89532 | 24.96452 | 32108 ft | 398 kts | 307° |
| 2026-05-05 08:40 | 36.92687 | 24.90766 | 32115 ft | 398 kts | 307° |
| 2026-05-05 08:40 | 36.95836 | 24.85082 | 32103 ft | 397 kts | 307° |
| 2026-05-05 08:41 | 36.98979 | 24.79397 | 32108 ft | 397 kts | 307° |
| 2026-05-05 08:41 | 37.02115 | 24.73717 | 32105 ft | 397 kts | 307° |
| 2026-05-05 08:42 | 37.05251 | 24.68027 | 32106 ft | 397 kts | 307° |
| 2026-05-05 08:42 | 37.08380 | 24.62341 | 32112 ft | 397 kts | 307° |
| 2026-05-05 08:43 | 37.11506 | 24.56649 | 32111 ft | 397 kts | 307° |
| 2026-05-05 08:43 | 37.14632 | 24.50947 | 32112 ft | 397 kts | 307° |
| 2026-05-05 08:44 | 37.17750 | 24.45252 | 32119 ft | 396 kts | 307° |
| 2026-05-05 08:44 | 37.20871 | 24.39542 | 32103 ft | 397 kts | 307° |
| 2026-05-05 08:45 | 37.23883 | 24.33731 | 32111 ft | 398 kts | 305° |
| 2026-05-05 08:45 | 37.26814 | 24.27849 | 32107 ft | 398 kts | 304° |
| 2026-05-05 08:46 | 37.29749 | 24.21963 | 32108 ft | 398 kts | 305° |
| 2026-05-05 08:46 | 37.32694 | 24.16080 | 32110 ft | 398 kts | 305° |
| 2026-05-05 08:47 | 37.35623 | 24.10231 | 32106 ft | 398 kts | 305° |
| 2026-05-05 08:47 | 37.38570 | 24.04342 | 32105 ft | 398 kts | 305° |
| 2026-05-05 08:48 | 37.41513 | 23.98448 | 32106 ft | 398 kts | 304° |
| 2026-05-05 08:48 | 37.44454 | 23.92549 | 32106 ft | 398 kts | 304° |
| 2026-05-05 08:49 | 37.47391 | 23.86647 | 32108 ft | 398 kts | 304° |
| 2026-05-05 08:49 | 37.50324 | 23.80743 | 32103 ft | 398 kts | 304° |
| 2026-05-05 08:50 | 37.53253 | 23.74834 | 32104 ft | 398 kts | 304° |
| 2026-05-05 08:50 | 37.56180 | 23.68921 | 32106 ft | 397 kts | 304° |
| 2026-05-05 08:51 | 37.59101 | 23.63008 | 32107 ft | 397 kts | 304° |
| 2026-05-05 08:51 | 37.62018 | 23.57094 | 32102 ft | 397 kts | 304° |
| 2026-05-05 08:52 | 37.64928 | 23.51182 | 32103 ft | 397 kts | 304° |
| 2026-05-05 08:52 | 37.67833 | 23.45272 | 32106 ft | 396 kts | 304° |
| 2026-05-05 08:53 | 37.70736 | 23.39353 | 32107 ft | 396 kts | 304° |
| 2026-05-05 08:53 | 37.73632 | 23.33437 | 32104 ft | 396 kts | 304° |
| 2026-05-05 08:54 | 37.76526 | 23.27518 | 32106 ft | 396 kts | 304° |
| 2026-05-05 08:54 | 37.79415 | 23.21596 | 32108 ft | 396 kts | 304° |
| 2026-05-05 08:55 | 37.82299 | 23.15672 | 32111 ft | 396 kts | 304° |
| 2026-05-05 08:55 | 37.85181 | 23.09743 | 32107 ft | 396 kts | 304° |
| 2026-05-05 08:56 | 37.88060 | 23.03809 | 32107 ft | 395 kts | 304° |
| 2026-05-05 08:56 | 37.90915 | 22.97915 | 32108 ft | 395 kts | 304° |
| 2026-05-05 08:57 | 37.93823 | 22.92014 | 32116 ft | 395 kts | 306° |
| 2026-05-05 08:57 | 37.96968 | 22.86316 | 32114 ft | 394 kts | 308° |
| 2026-05-05 08:58 | 38.00156 | 22.80611 | 32112 ft | 394 kts | 307° |
| 2026-05-05 08:58 | 38.03277 | 22.74949 | 32118 ft | 394 kts | 307° |
| 2026-05-05 08:59 | 38.06427 | 22.69209 | 32120 ft | 394 kts | 307° |
| 2026-05-05 08:59 | 38.09556 | 22.63503 | 32123 ft | 394 kts | 307° |
| 2026-05-05 09:00 | 38.12658 | 22.57838 | 32115 ft | 393 kts | 307° |
| 2026-05-05 09:00 | 38.15798 | 22.52092 | 32122 ft | 393 kts | 307° |
| 2026-05-05 09:01 | 38.18912 | 22.46382 | 32124 ft | 393 kts | 307° |
| 2026-05-05 09:01 | 38.22004 | 22.40705 | 32116 ft | 393 kts | 307° |
| 2026-05-05 09:02 | 38.25129 | 22.34955 | 32121 ft | 392 kts | 307° |
| 2026-05-05 09:02 | 38.28229 | 22.29243 | 32124 ft | 392 kts | 307° |
| 2026-05-05 09:03 | 38.31325 | 22.23528 | 32125 ft | 392 kts | 307° |
| 2026-05-05 09:03 | 38.34417 | 22.17814 | 32114 ft | 392 kts | 307° |
| 2026-05-05 09:04 | 38.37482 | 22.12144 | 32125 ft | 391 kts | 307° |
| 2026-05-05 09:04 | 38.40565 | 22.06427 | 32124 ft | 391 kts | 307° |
| 2026-05-05 09:05 | 38.43637 | 22.00721 | 32128 ft | 390 kts | 307° |
| 2026-05-05 09:05 | 38.46711 | 21.95002 | 32130 ft | 391 kts | 307° |
| 2026-05-05 09:06 | 38.49787 | 21.89269 | 32128 ft | 392 kts | 307° |
| 2026-05-05 09:06 | 38.52867 | 21.83518 | 32138 ft | 392 kts | 307° |
| 2026-05-05 09:07 | 38.55939 | 21.77762 | 32146 ft | 392 kts | 307° |
| 2026-05-05 09:07 | 38.59011 | 21.71991 | 32139 ft | 392 kts | 307° |
| 2026-05-05 09:08 | 38.62071 | 21.66231 | 32141 ft | 391 kts | 307° |
| 2026-05-05 09:08 | 38.65119 | 21.60484 | 32142 ft | 390 kts | 307° |
| 2026-05-05 09:09 | 38.68160 | 21.54744 | 32140 ft | 390 kts | 307° |
| 2026-05-05 09:09 | 38.71199 | 21.48995 | 32137 ft | 390 kts | 307° |
| 2026-05-05 09:10 | 38.74234 | 21.43239 | 32140 ft | 390 kts | 307° |
| 2026-05-05 09:10 | 38.77262 | 21.37480 | 32154 ft | 390 kts | 306° |
| 2026-05-05 09:11 | 38.80287 | 21.31718 | 32146 ft | 390 kts | 306° |
| 2026-05-05 09:11 | 38.83313 | 21.25943 | 32144 ft | 390 kts | 306° |
| 2026-05-05 09:12 | 38.86338 | 21.20161 | 32148 ft | 390 kts | 306° |
| 2026-05-05 09:12 | 38.89361 | 21.14371 | 32147 ft | 390 kts | 306° |
| 2026-05-05 09:13 | 38.92378 | 21.08581 | 32151 ft | 390 kts | 306° |
| 2026-05-05 09:13 | 38.95389 | 21.02793 | 32155 ft | 390 kts | 306° |
| 2026-05-05 09:14 | 38.98379 | 20.97039 | 32161 ft | 389 kts | 306° |
| 2026-05-05 09:14 | 39.01382 | 20.91248 | 32159 ft | 389 kts | 306° |
| 2026-05-05 09:15 | 39.04387 | 20.85447 | 32164 ft | 390 kts | 306° |
| 2026-05-05 09:15 | 39.07393 | 20.79632 | 32153 ft | 390 kts | 306° |
| 2026-05-05 09:16 | 39.10394 | 20.73815 | 32156 ft | 390 kts | 306° |
| 2026-05-05 09:16 | 39.13398 | 20.67982 | 32146 ft | 391 kts | 305° |
| 2026-05-05 09:17 | 39.16392 | 20.62158 | 32127 ft | 391 kts | 305° |
| 2026-05-05 09:17 | 39.19393 | 20.56310 | 32147 ft | 391 kts | 306° |
| 2026-05-05 09:18 | 39.22395 | 20.50448 | 32144 ft | 392 kts | 306° |
| 2026-05-05 09:18 | 39.25399 | 20.44574 | 32140 ft | 392 kts | 305° |
| 2026-05-05 09:19 | 39.28403 | 20.38698 | 32144 ft | 392 kts | 305° |
| 2026-05-05 09:19 | 39.31410 | 20.32823 | 32142 ft | 392 kts | 305° |
| 2026-05-05 09:20 | 39.34417 | 20.26937 | 32135 ft | 393 kts | 305° |
| 2026-05-05 09:20 | 39.37418 | 20.21047 | 32134 ft | 392 kts | 305° |
| 2026-05-05 09:21 | 39.39907 | 20.16154 | 32136 ft | 392 kts | 305° |
| 2026-05-05 09:21 | 39.42895 | 20.10272 | 32134 ft | 391 kts | 305° |
| 2026-05-05 09:22 | 39.45959 | 20.04469 | 32128 ft | 390 kts | 308° |
| 2026-05-05 09:22 | 39.49220 | 19.98872 | 32132 ft | 389 kts | 308° |
| 2026-05-05 09:23 | 39.52499 | 19.93290 | 32130 ft | 389 kts | 308° |
| 2026-05-05 09:23 | 39.55756 | 19.87691 | 32135 ft | 389 kts | 308° |
| 2026-05-05 09:24 | 39.59002 | 19.82075 | 32126 ft | 389 kts | 308° |
| 2026-05-05 09:24 | 39.62244 | 19.76447 | 32131 ft | 390 kts | 308° |
| 2026-05-05 09:25 | 39.65463 | 19.70847 | 32129 ft | 390 kts | 308° |
| 2026-05-05 09:25 | 39.68700 | 19.65206 | 32130 ft | 390 kts | 308° |
| 2026-05-05 09:26 | 39.71934 | 19.59560 | 32132 ft | 390 kts | 308° |
| 2026-05-05 09:26 | 39.75163 | 19.53914 | 32134 ft | 389 kts | 308° |
| 2026-05-05 09:27 | 39.78391 | 19.48259 | 32140 ft | 389 kts | 307° |
| 2026-05-05 09:27 | 39.81615 | 19.42601 | 32138 ft | 389 kts | 307° |
| 2026-05-05 09:28 | 39.84835 | 19.36939 | 32139 ft | 389 kts | 307° |
| 2026-05-05 09:28 | 39.88049 | 19.31277 | 32137 ft | 389 kts | 307° |
| 2026-05-05 09:29 | 39.91260 | 19.25612 | 32136 ft | 389 kts | 307° |
| 2026-05-05 09:29 | 39.94469 | 19.19939 | 32137 ft | 389 kts | 307° |
| 2026-05-05 09:30 | 39.97676 | 19.14260 | 32136 ft | 389 kts | 307° |
| 2026-05-05 09:30 | 40.00880 | 19.08574 | 32137 ft | 389 kts | 307° |
| 2026-05-05 09:31 | 40.04084 | 19.02881 | 32138 ft | 389 kts | 307° |
| 2026-05-05 09:31 | 40.07286 | 18.97188 | 32136 ft | 389 kts | 307° |
| 2026-05-05 09:32 | 40.10473 | 18.91534 | 32131 ft | 389 kts | 307° |
| 2026-05-05 09:32 | 40.13680 | 18.85838 | 32132 ft | 389 kts | 307° |
| 2026-05-05 09:33 | 40.16884 | 18.80134 | 32131 ft | 389 kts | 307° |
| 2026-05-05 09:33 | 40.20083 | 18.74426 | 32130 ft | 389 kts | 306° |
| 2026-05-05 09:34 | 40.23279 | 18.68715 | 32128 ft | 389 kts | 306° |
| 2026-05-05 09:34 | 40.26473 | 18.62995 | 32126 ft | 389 kts | 306° |
| 2026-05-05 09:35 | 40.29664 | 18.57270 | 32124 ft | 389 kts | 306° |
| 2026-05-05 09:35 | 40.34444 | 18.48675 | 32117 ft | 389 kts | 306° |
| 2026-05-05 09:36 | 40.37629 | 18.42935 | 32113 ft | 389 kts | 306° |
| 2026-05-05 09:36 | 40.40808 | 18.37194 | 32112 ft | 389 kts | 306° |
| 2026-05-05 09:37 | 40.43989 | 18.31440 | 32109 ft | 389 kts | 306° |
| 2026-05-05 09:37 | 40.47168 | 18.25679 | 32108 ft | 390 kts | 306° |
| 2026-05-05 09:38 | 40.50345 | 18.19910 | 32109 ft | 390 kts | 305° |
| 2026-05-05 09:38 | 40.53521 | 18.14133 | 32105 ft | 390 kts | 305° |
| 2026-05-05 09:39 | 40.56695 | 18.08349 | 32103 ft | 390 kts | 305° |
| 2026-05-05 09:39 | 40.59822 | 18.02517 | 32102 ft | 390 kts | 300° |
| 2026-05-05 09:40 | 40.61977 | 17.95979 | 32101 ft | 392 kts | 286° |
| 2026-05-05 09:40 | 40.63267 | 17.89066 | 32100 ft | 392 kts | 285° |
| 2026-05-05 09:41 | 40.64546 | 17.82088 | 32103 ft | 392 kts | 285° |
| 2026-05-05 09:41 | 40.65836 | 17.75119 | 32099 ft | 392 kts | 285° |
| 2026-05-05 09:42 | 40.67130 | 17.68156 | 32101 ft | 391 kts | 285° |
| 2026-05-05 09:42 | 40.68422 | 17.61200 | 32105 ft | 390 kts | 285° |
| 2026-05-05 09:43 | 40.69707 | 17.54261 | 32104 ft | 390 kts | 285° |
| 2026-05-05 09:43 | 40.70987 | 17.47325 | 32101 ft | 389 kts | 285° |
| 2026-05-05 09:44 | 40.72260 | 17.40397 | 32104 ft | 388 kts | 285° |
| 2026-05-05 09:44 | 40.73526 | 17.33484 | 32100 ft | 388 kts | 285° |
| 2026-05-05 09:45 | 40.74785 | 17.26580 | 32098 ft | 387 kts | 285° |
| 2026-05-05 09:45 | 40.76036 | 17.19698 | 32105 ft | 386 kts | 285° |
| 2026-05-05 09:46 | 40.77282 | 17.12824 | 32106 ft | 385 kts | 285° |
| 2026-05-05 09:46 | 40.78521 | 17.05953 | 32100 ft | 384 kts | 285° |
| 2026-05-05 09:47 | 40.79754 | 16.99095 | 32107 ft | 384 kts | 284° |
| 2026-05-05 09:47 | 40.80982 | 16.92248 | 32102 ft | 383 kts | 284° |
| 2026-05-05 09:48 | 40.82203 | 16.85404 | 32102 ft | 382 kts | 284° |
| 2026-05-05 09:48 | 40.83415 | 16.78576 | 32101 ft | 382 kts | 284° |
| 2026-05-05 09:49 | 40.84613 | 16.71795 | 32103 ft | 381 kts | 284° |
| 2026-05-05 09:49 | 40.85814 | 16.64976 | 32057 ft | 381 kts | 284° |
| 2026-05-05 09:50 | 40.87019 | 16.58114 | 32045 ft | 381 kts | 284° |
| 2026-05-05 09:50 | 40.88212 | 16.51293 | 32056 ft | 381 kts | 284° |
| 2026-05-05 09:51 | 40.89370 | 16.44637 | 32032 ft | 359 kts | 284° |
| 2026-05-05 09:51 | 40.90476 | 16.38268 | 32041 ft | 354 kts | 283° |
| 2026-05-05 09:52 | 40.91028 | 16.35078 | 31828 ft | 357 kts | 283° |
| 2026-05-05 09:52 | 40.91577 | 16.31906 | 31581 ft | 351 kts | 283° |
| 2026-05-05 09:52 | 40.92117 | 16.28774 | 31223 ft | 347 kts | 283° |
| 2026-05-05 09:52 | 40.92651 | 16.25674 | 30847 ft | 345 kts | 283° |
| 2026-05-05 09:53 | 40.93180 | 16.22597 | 30485 ft | 342 kts | 283° |
| 2026-05-05 09:53 | 40.93705 | 16.19543 | 30112 ft | 340 kts | 283° |
| 2026-05-05 09:53 | 40.94226 | 16.16507 | 29690 ft | 337 kts | 282° |
| 2026-05-05 09:53 | 40.94741 | 16.13492 | 29291 ft | 334 kts | 282° |
| 2026-05-05 09:54 | 40.95251 | 16.10505 | 28912 ft | 331 kts | 282° |
| 2026-05-05 09:54 | 40.95755 | 16.07541 | 28512 ft | 329 kts | 282° |
| 2026-05-05 09:54 | 40.96252 | 16.04602 | 28160 ft | 326 kts | 282° |
| 2026-05-05 09:54 | 40.96745 | 16.01686 | 27784 ft | 323 kts | 282° |
| 2026-05-05 09:55 | 40.97233 | 15.98790 | 27414 ft | 322 kts | 282° |
| 2026-05-05 09:55 | 40.97720 | 15.95905 | 27064 ft | 321 kts | 282° |
| 2026-05-05 09:55 | 40.98205 | 15.93020 | 26698 ft | 323 kts | 282° |
| 2026-05-05 09:55 | 40.98699 | 15.90076 | 26345 ft | 334 kts | 282° |
| 2026-05-05 09:56 | 40.99204 | 15.87064 | 25964 ft | 343 kts | 282° |
| 2026-05-05 09:56 | 40.99719 | 15.83986 | 25563 ft | 342 kts | 282° |
| 2026-05-05 09:56 | 41.00231 | 15.80923 | 25172 ft | 340 kts | 282° |
| 2026-05-05 09:56 | 41.00742 | 15.77865 | 24775 ft | 339 kts | 282° |
| 2026-05-05 09:57 | 41.01144 | 15.75458 | 24460 ft | 339 kts | 282° |
| 2026-05-05 09:57 | 41.01649 | 15.72417 | 24068 ft | 338 kts | 282° |
| 2026-05-05 09:57 | 41.02154 | 15.69383 | 23672 ft | 338 kts | 282° |
| 2026-05-05 09:57 | 41.02663 | 15.66335 | 23166 ft | 339 kts | 282° |
| 2026-05-05 09:58 | 41.03171 | 15.63302 | 22587 ft | 338 kts | 282° |
| 2026-05-05 09:58 | 41.03680 | 15.60260 | 21942 ft | 338 kts | 282° |
| 2026-05-05 09:58 | 41.04187 | 15.57226 | 21305 ft | 338 kts | 282° |
| 2026-05-05 09:58 | 41.04693 | 15.54188 | 20679 ft | 337 kts | 281° |
| 2026-05-05 09:59 | 41.05197 | 15.51157 | 20076 ft | 336 kts | 281° |
| 2026-05-05 09:59 | 41.05698 | 15.48139 | 19493 ft | 335 kts | 281° |
| 2026-05-05 09:59 | 41.06196 | 15.45135 | 18908 ft | 333 kts | 281° |
| 2026-05-05 09:59 | 41.06692 | 15.42139 | 18308 ft | 332 kts | 281° |
| 2026-05-05 10:00 | 41.07183 | 15.39167 | 17651 ft | 329 kts | 281° |
| 2026-05-05 10:00 | 41.07670 | 15.36211 | 16997 ft | 327 kts | 281° |
| 2026-05-05 10:00 | 41.08152 | 15.33280 | 16370 ft | 325 kts | 281° |
| 2026-05-05 10:00 | 41.08631 | 15.30369 | 15744 ft | 322 kts | 282° |
| 2026-05-05 10:01 | 41.09106 | 15.27472 | 15141 ft | 320 kts | 282° |
| 2026-05-05 10:01 | 41.09577 | 15.24599 | 14594 ft | 317 kts | 282° |
| 2026-05-05 10:01 | 41.10033 | 15.21808 | 14377 ft | 304 kts | 282° |
| 2026-05-05 10:01 | 41.10342 | 15.19097 | 14109 ft | 293 kts | 268° |
| 2026-05-05 10:02 | 41.09943 | 15.16493 | 13883 ft | 287 kts | 250° |
| 2026-05-05 10:02 | 41.08950 | 15.14182 | 13349 ft | 295 kts | 233° |
| 2026-05-05 10:02 | 41.07613 | 15.12088 | 12814 ft | 300 kts | 231° |
| 2026-05-05 10:02 | 41.06223 | 15.10006 | 12258 ft | 302 kts | 231° |
| 2026-05-05 10:03 | 41.04833 | 15.07928 | 11706 ft | 300 kts | 231° |
| 2026-05-05 10:03 | 41.03461 | 15.05857 | 11165 ft | 298 kts | 231° |
| 2026-05-05 10:03 | 41.02102 | 15.03792 | 10640 ft | 296 kts | 231° |
| 2026-05-05 10:03 | 41.00754 | 15.01736 | 10119 ft | 295 kts | 232° |
| 2026-05-05 10:04 | 40.99413 | 14.99691 | 9554 ft | 293 kts | 232° |
| 2026-05-05 10:04 | 40.98084 | 14.97659 | 8992 ft | 291 kts | 232° |
| 2026-05-05 10:04 | 40.96763 | 14.95639 | 8439 ft | 289 kts | 231° |
| 2026-05-05 10:04 | 40.95453 | 14.93635 | 7898 ft | 287 kts | 231° |
| 2026-05-05 10:05 | 40.94154 | 14.91650 | 7360 ft | 285 kts | 231° |
| 2026-05-05 10:05 | 40.92861 | 14.89674 | 6828 ft | 283 kts | 231° |
| 2026-05-05 10:05 | 40.91578 | 14.87713 | 6298 ft | 282 kts | 231° |
| 2026-05-05 10:05 | 40.90348 | 14.85841 | 6244 ft | 263 kts | 231° |
| 2026-05-05 10:06 | 40.89198 | 14.84029 | 6209 ft | 251 kts | 237° |
| 2026-05-05 10:06 | 40.88637 | 14.81923 | 6209 ft | 243 kts | 265° |
| 2026-05-05 10:06 | 40.88852 | 14.79711 | 6217 ft | 247 kts | 288° |
| 2026-05-05 10:06 | 40.89742 | 14.77752 | 6205 ft | 254 kts | 310° |
| 2026-05-05 10:07 | 40.91165 | 14.76346 | 6230 ft | 259 kts | 326° |
| 2026-05-05 10:07 | 40.92770 | 14.75242 | 6227 ft | 260 kts | 329° |
| 2026-05-05 10:07 | 40.94397 | 14.74191 | 6221 ft | 259 kts | 330° |
| 2026-05-05 10:07 | 40.96015 | 14.73142 | 6200 ft | 258 kts | 329° |
| 2026-05-05 10:08 | 40.97613 | 14.72087 | 6216 ft | 256 kts | 329° |
| 2026-05-05 10:08 | 40.99185 | 14.71031 | 6221 ft | 250 kts | 329° |
| 2026-05-05 10:08 | 41.00718 | 14.69998 | 6212 ft | 244 kts | 328° |
| 2026-05-05 10:08 | 41.02206 | 14.68996 | 6214 ft | 236 kts | 328° |
| 2026-05-05 10:09 | 41.03635 | 14.67976 | 6214 ft | 229 kts | 318° |
| 2026-05-05 10:09 | 41.04488 | 14.66362 | 6204 ft | 209 kts | 277° |
| 2026-05-05 10:09 | 41.04475 | 14.65119 | 6207 ft | 205 kts | 254° |
| 2026-05-05 10:09 | 41.04001 | 14.63301 | 6249 ft | 213 kts | 250° |
| 2026-05-05 10:10 | 41.03442 | 14.61459 | 6161 ft | 218 kts | 247° |
| 2026-05-05 10:10 | 41.02821 | 14.59610 | 5877 ft | 221 kts | 244° |
| 2026-05-05 10:10 | 41.02108 | 14.57823 | 5547 ft | 216 kts | 240° |
| 2026-05-05 10:10 | 41.01351 | 14.56141 | 5277 ft | 209 kts | 239° |
| 2026-05-05 10:11 | 41.00582 | 14.54498 | 4941 ft | 209 kts | 238° |
| 2026-05-05 10:11 | 40.99821 | 14.52890 | 4627 ft | 203 kts | 238° |
| 2026-05-05 10:11 | 40.99088 | 14.51338 | 4311 ft | 195 kts | 237° |
| 2026-05-05 10:11 | 40.98383 | 14.49844 | 4034 ft | 190 kts | 238° |
| 2026-05-05 10:12 | 40.97693 | 14.48382 | 3762 ft | 184 kts | 237° |
| 2026-05-05 10:12 | 40.97025 | 14.46965 | 3490 ft | 179 kts | 237° |
| 2026-05-05 10:12 | 40.96376 | 14.45588 | 3230 ft | 174 kts | 237° |
| 2026-05-05 10:12 | 40.95745 | 14.44249 | 2963 ft | 169 kts | 237° |
| 2026-05-05 10:13 | 40.95127 | 14.42941 | 2728 ft | 166 kts | 237° |
| 2026-05-05 10:13 | 40.94532 | 14.41677 | 2486 ft | 156 kts | 238° |
| 2026-05-05 10:13 | 40.93970 | 14.40484 | 2290 ft | 153 kts | 237° |
| 2026-05-05 10:13 | 40.93401 | 14.39273 | 2045 ft | 154 kts | 237° |
| 2026-05-05 10:14 | 40.92840 | 14.38085 | 1815 ft | 151 kts | 237° |
| 2026-05-05 10:14 | 40.92283 | 14.36902 | 1580 ft | 152 kts | 238° |
| 2026-05-05 10:14 | 40.91728 | 14.35721 | 1346 ft | 152 kts | 238° |
| 2026-05-05 10:14 | 40.91172 | 14.34540 | 1110 ft | 151 kts | 238° |
| 2026-05-05 10:15 | 40.90615 | 14.33351 | 885 ft | 154 kts | 240° |
| 2026-05-05 10:15 | 40.90055 | 14.32147 | 647 ft | 154 kts | 239° |
| 2026-05-05 10:15 | 40.89490 | 14.30956 | 405 ft | 151 kts | 239° |
| 2026-05-05 10:15 | 40.88937 | 14.29788 | 253 ft | 143 kts | 240° |
| 2026-05-05 10:16 | 40.88489 | 14.28827 | 273 ft | 94 kts | 238° |
| 2026-05-05 10:16 | 40.88242 | 14.28314 | 284 ft | 51 kts | 238° |
| 2026-05-05 10:16 | 40.88120 | 14.28061 | 292 ft | 12 kts | 223° |
| 2026-05-05 10:16 | 40.88042 | 14.28065 | 294 ft | 12 kts | 147° |
| 2026-05-05 10:17 | 40.88002 | 14.28101 | 293 ft | 0 kts | 147° |
| 2026-05-05 10:17 | 40.88001 | 14.28102 | 293 ft | 1 kts | 149° |
| 2026-05-05 10:17 | 40.87987 | 14.28112 | 291 ft | 4 kts | 152° |
| 2026-05-05 10:17 | 40.87949 | 14.28145 | 291 ft | 9 kts | 157° |
| 2026-05-05 10:18 | 40.87898 | 14.28163 | 292 ft | 4 kts | 163° |
| 2026-05-05 10:18 | 40.87891 | 14.28166 | 294 ft | 0 kts | 163° |